Time;durP1;ratioP1;P1;durP2;ratioP2;P2;SDS_P1;SDS_P2;PMS_P1;PMS_P2;Temp;Humidity;BMP_temperature;BMP_pressure;BME280_temperature;BME280_humidity;BME280_pressure;Samples;Min_cycle;Max_cycle;Signal;HPM_P1;HPM_P2
2022/06/26 00:01:55;;;;;;;;;2.67;2.00;;;;;17.59;100.00;100853.75;4989357;28;45547;-77
2022/06/26 00:04:21;;;;;;;;;1.67;1.67;;;;;17.54;100.00;100848.97;4977319;28;46463;-79
2022/06/26 00:06:46;;;;;;;;;2.00;2.00;;;;;17.57;100.00;100862.31;4980025;28;46059;-78
2022/06/26 00:09:12;;;;;;;;;1.00;1.00;;;;;17.58;100.00;100868.72;4975201;28;46047;-77
2022/06/26 00:11:37;;;;;;;;;2.00;2.00;;;;;17.57;100.00;100862.31;4976074;28;45770;-79
2022/06/26 00:14:02;;;;;;;;;1.00;1.00;;;;;17.56;100.00;100859.81;4981154;28;45446;-80
2022/06/26 00:16:28;;;;;;;;;2.00;2.00;;;;;17.45;100.00;100848.56;4978907;28;46008;-78
2022/06/26 00:18:53;;;;;;;;;1.67;1.67;;;;;17.55;100.00;100860.91;4974717;28;45422;-77
2022/06/26 00:21:19;;;;;;;;;3.33;3.33;;;;;17.58;100.00;100869.56;4974412;28;45408;-79
2022/06/26 00:23:47;;;;;;;;;3.00;1.00;;;;;17.57;100.00;100873.41;4974887;28;46028;-78
2022/06/26 00:26:13;;;;;;;;;2.00;2.00;;;;;17.53;100.00;100858.41;4972386;28;45754;-79
2022/06/26 00:28:38;;;;;;;;;0.67;0.67;;;;;17.50;100.00;100852.50;4975510;28;45511;-78
2022/06/26 00:31:03;;;;;;;;;1.00;1.00;;;;;17.30;100.00;100820.59;4979611;28;45651;-79
2022/06/26 00:33:29;;;;;;;;;4.00;1.00;;;;;17.55;100.00;100858.16;4987630;28;45978;-79
2022/06/26 00:35:55;;;;;;;;;3.67;2.00;;;;;17.50;100.00;100858.03;4993961;28;48170;-79
2022/06/26 00:38:20;;;;;;;;;2.00;2.00;;;;;17.47;100.00;100860.25;4973378;28;45474;-75
2022/06/26 00:40:45;;;;;;;;;2.00;1.00;;;;;17.35;100.00;100842.88;4972448;28;45401;-75
2022/06/26 00:43:11;;;;;;;;;2.00;1.00;;;;;17.46;100.00;100872.41;4979564;28;45587;-76
2022/06/26 00:45:36;;;;;;;;;1.00;1.00;;;;;17.45;100.00;100867.97;4971261;28;46209;-76
2022/06/26 00:48:04;;;;;;;;;2.33;1.33;;;;;17.36;100.00;100852.84;4978452;28;45876;-75
2022/06/26 00:50:29;;;;;;;;;4.00;1.00;;;;;17.43;100.00;100858.22;4998483;28;45416;-75
2022/06/26 00:52:56;;;;;;;;;1.00;1.00;;;;;17.42;100.00;100868.47;4970947;28;45697;-75
2022/06/26 00:55:22;;;;;;;;;2.00;2.00;;;;;17.37;100.00;100862.84;4970908;28;46303;-74
2022/06/26 00:57:49;;;;;;;;;2.00;2.00;;;;;17.31;100.00;100861.06;4975851;28;45778;-73
2022/06/26 01:00:15;;;;;;;;;3.00;1.33;;;;;17.25;100.00;100856.53;4972236;28;45824;-74
2022/06/26 01:02:41;;;;;;;;;1.00;1.00;;;;;17.33;100.00;100883.84;4977492;28;45723;-73
2022/06/26 01:05:10;;;;;;;;;1.00;1.00;;;;;17.32;100.00;100884.94;4982536;28;45483;-75
2022/06/26 01:07:35;;;;;;;;;3.00;1.67;;;;;17.29;100.00;100891.00;4989730;28;45746;-73
2022/06/26 01:10:03;;;;;;;;;3.67;2.33;;;;;17.20;100.00;100873.06;4990885;28;45564;-73
2022/06/26 01:12:30;;;;;;;;;1.00;1.00;;;;;17.13;100.00;100855.78;4996390;28;45504;-75
2022/06/26 01:14:56;;;;;;;;;2.67;2.00;;;;;17.21;100.00;100877.53;4972738;28;46868;-74
2022/06/26 01:17:21;;;;;;;;;2.00;1.00;;;;;17.20;100.00;100887.78;4991722;28;45839;-74
2022/06/26 01:19:47;;;;;;;;;2.00;1.00;;;;;17.10;100.00;100899.50;4989463;28;45648;-74
2022/06/26 01:22:12;;;;;;;;;2.67;1.33;;;;;17.04;100.00;100891.38;4991649;28;45901;-74
2022/06/26 01:24:38;;;;;;;;;7.67;5.67;;;;;17.10;100.00;100905.06;4975861;28;46144;-77
2022/06/26 01:27:04;;;;;;;;;2.67;1.67;;;;;16.95;100.00;100890.91;4977853;28;45968;-79
2022/06/26 01:29:30;;;;;;;;;9.00;5.67;;;;;17.06;100.00;100903.03;4991055;28;45613;-74
2022/06/26 01:31:56;;;;;;;;;1.00;1.00;;;;;17.04;100.00;100900.50;4978386;28;45701;-74
2022/06/26 01:34:21;;;;;;;;;1.00;1.00;;;;;17.01;100.00;100900.19;4983895;28;46028;-75
2022/06/26 01:36:47;;;;;;;;;1.00;1.00;;;;;17.00;100.00;100904.84;4987119;28;45746;-74
2022/06/26 01:39:12;;;;;;;;;3.00;2.00;;;;;16.98;100.00;100912.59;4983811;28;45670;-74
2022/06/26 01:41:37;;;;;;;;;2.67;2.00;;;;;16.88;100.00;100904.06;4970489;28;47227;-73
2022/06/26 01:44:07;;;;;;;;;2.33;1.33;;;;;16.92;100.00;100927.44;4968953;28;46480;-73
2022/06/26 01:46:32;;;;;;;;;3.33;3.33;;;;;16.88;100.00;100916.00;4991985;28;45820;-73
2022/06/26 01:48:58;;;;;;;;;5.33;5.33;;;;;16.85;100.00;100923.94;4975528;28;45467;-73
2022/06/26 01:51:23;;;;;;;;;1.33;1.00;;;;;16.84;100.00;100922.25;4991809;28;46893;-75
2022/06/26 01:53:48;;;;;;;;;1.67;1.67;;;;;16.84;100.00;100927.78;4989877;28;46527;-76
2022/06/26 01:56:14;;;;;;;;;1.67;1.00;;;;;16.82;100.00;100929.97;4993223;28;45723;-75
2022/06/26 01:58:39;;;;;;;;;3.67;3.67;;;;;16.79;100.00;100930.47;4990342;28;45893;-74
2022/06/26 02:01:07;;;;;;;;;1.00;1.00;;;;;16.76;100.00;100924.31;4995320;28;45599;-75
2022/06/26 02:03:32;;;;;;;;;1.33;1.33;;;;;16.75;100.00;100928.19;4991482;28;45865;-74
2022/06/26 02:05:58;;;;;;;;;4.00;2.00;;;;;16.75;100.00;100927.31;4978192;28;45621;-74
2022/06/26 02:08:23;;;;;;;;;4.33;4.00;;;;;16.76;100.00;100929.00;4972758;28;46174;-75
2022/06/26 02:13:36;;;;;;;;;2.00;1.00;;;;;16.74;100.00;100922.88;4993119;28;45761;-73
2022/06/26 02:16:16;;;;;;;;;1.67;1.33;;;;;16.67;100.00;100917.47;5000065;28;45857;-72
2022/06/26 02:18:43;;;;;;;;;5.00;3.00;;;;;16.71;100.00;100915.91;4993958;28;45873;-72
2022/06/26 02:21:15;;;;;;;;;3.00;3.00;;;;;16.64;100.00;100912.44;4991685;28;45481;-73
2022/06/26 02:23:42;;;;;;;;;2.67;1.00;;;;;16.74;100.00;100923.72;4973303;28;48183;-73
2022/06/26 02:26:08;;;;;;;;;2.00;2.00;;;;;16.70;100.00;100936.38;4998157;28;45781;-77
2022/06/26 02:28:35;;;;;;;;;6.00;2.33;;;;;16.77;100.00;100950.09;4983558;28;45752;-77
2022/06/26 02:31:01;;;;;;;;;3.33;3.33;;;;;16.77;100.00;100942.63;4986965;28;45559;-77
2022/06/26 02:33:28;;;;;;;;;2.67;1.00;;;;;16.75;100.00;100936.50;4978810;28;48255;-76
2022/06/26 02:35:55;;;;;;;;;3.67;3.67;;;;;16.80;100.00;100938.53;4973839;28;45765;-77
2022/06/26 02:38:24;;;;;;;;;1.67;1.00;;;;;16.84;100.00;100938.84;4991155;28;45441;-77
2022/06/26 02:40:50;;;;;;;;;2.33;2.33;;;;;16.85;100.00;100935.00;4992429;28;45930;-78
2022/06/26 02:43:18;;;;;;;;;3.00;1.00;;;;;16.86;100.00;100923.69;4978240;28;47078;-76
2022/06/26 02:45:44;;;;;;;;;5.00;5.00;;;;;16.85;100.00;100915.63;4989188;28;45481;-76
2022/06/26 02:48:10;;;;;;;;;2.33;1.33;;;;;16.90;100.00;100926.81;4989760;28;45726;-76
2022/06/26 02:50:35;;;;;;;;;2.00;2.00;;;;;16.89;100.00;100920.44;4986348;28;45483;-76
2022/06/26 02:53:01;;;;;;;;;2.67;2.67;;;;;16.97;100.00;100930.28;4989879;28;46026;-77
2022/06/26 02:55:26;;;;;;;;;3.00;2.00;;;;;16.87;100.00;100910.69;4966190;28;45456;-76
2022/06/26 02:57:52;;;;;;;;;2.33;2.33;;;;;16.95;100.00;100913.09;4974476;28;45489;-78
2022/06/26 03:00:17;;;;;;;;;3.00;3.00;;;;;17.00;100.00;100929.78;4993437;28;45802;-78
2022/06/26 03:02:42;;;;;;;;;2.00;1.00;;;;;17.01;100.00;100931.50;4967816;28;47438;-77
2022/06/26 03:05:09;;;;;;;;;3.00;2.00;;;;;17.00;100.00;100931.72;4993847;28;45734;-76
2022/06/26 03:07:34;;;;;;;;;3.00;3.00;;;;;17.03;100.00;100942.31;4975599;28;45812;-75
2022/06/26 03:09:59;;;;;;;;;2.00;2.00;;;;;17.07;100.00;100940.75;4993253;28;45381;-74
2022/06/26 03:12:25;;;;;;;;;2.00;1.33;;;;;17.09;100.00;100947.69;4993595;28;45788;-76
2022/06/26 03:14:51;;;;;;;;;2.00;2.00;;;;;17.07;100.00;100938.81;4994474;28;45528;-74
2022/06/26 03:17:16;;;;;;;;;1.33;1.33;;;;;17.10;100.00;100938.31;4999239;28;45862;-73
2022/06/26 03:19:42;;;;;;;;;4.00;3.00;;;;;17.11;100.00;100944.69;4979249;28;45702;-73
2022/06/26 03:22:08;;;;;;;;;3.67;2.00;;;;;17.04;100.00;100928.22;4997851;28;45594;-74
2022/06/26 03:24:34;;;;;;;;;2.33;2.33;;;;;17.01;100.00;100920.41;4992704;28;45783;-74
2022/06/26 03:26:59;;;;;;;;;1.67;1.67;;;;;17.13;100.00;100941.69;4996201;28;45518;-75
2022/06/26 03:29:25;;;;;;;;;4.00;3.00;;;;;17.12;100.00;100946.38;4976802;28;46845;-74
2022/06/26 03:31:51;;;;;;;;;3.00;1.67;;;;;17.11;100.00;100948.31;4985033;28;46427;-74
2022/06/26 03:34:16;;;;;;;;;2.00;2.00;;;;;17.13;100.00;100947.25;4981995;28;45698;-74
2022/06/26 03:36:42;;;;;;;;;3.33;2.00;;;;;17.13;100.00;100950.84;4996833;28;45429;-73
2022/06/26 03:39:08;;;;;;;;;3.00;3.00;;;;;17.14;100.00;100948.91;4992455;28;45640;-73
2022/06/26 03:41:34;;;;;;;;;3.00;3.00;;;;;17.22;100.00;100954.06;4992432;28;45805;-74
2022/06/26 03:43:59;;;;;;;;;2.00;2.00;;;;;17.25;100.00;100961.88;4975815;28;45392;-75
2022/06/26 03:46:25;;;;;;;;;3.00;2.00;;;;;17.20;100.00;100947.91;4979348;28;45529;-74
2022/06/26 03:48:51;;;;;;;;;4.00;2.67;;;;;17.27;100.00;100952.19;4994133;28;45860;-74
2022/06/26 03:51:16;;;;;;;;;2.33;2.33;;;;;17.27;100.00;100952.19;4994422;28;46058;-76
2022/06/26 03:53:41;;;;;;;;;2.33;2.00;;;;;17.30;100.00;100959.19;4983893;28;45432;-76
2022/06/26 03:56:07;;;;;;;;;2.33;1.00;;;;;17.26;100.00;100946.91;4976841;28;45705;-75
2022/06/26 03:58:32;;;;;;;;;1.00;1.00;;;;;17.29;100.00;100955.59;4978620;28;46083;-77
2022/06/26 04:00:58;;;;;;;;;2.33;2.33;;;;;17.31;100.00;100947.00;4997017;28;45810;-75
2022/06/26 04:03:25;;;;;;;;;3.67;2.00;;;;;17.26;100.00;100935.81;4985730;28;45818;-76
2022/06/26 04:05:50;;;;;;;;;2.00;2.00;;;;;17.34;100.00;100949.28;4998217;28;45492;-75
2022/06/26 04:08:16;;;;;;;;;2.33;2.00;;;;;17.37;100.00;100951.56;4991381;28;45635;-75
2022/06/26 04:10:42;;;;;;;;;5.33;3.00;;;;;17.40;100.00;100964.91;4981319;28;47631;-76
2022/06/26 04:13:10;;;;;;;;;2.00;2.00;;;;;17.43;100.00;100961.66;4995364;28;45785;-75
2022/06/26 04:15:38;;;;;;;;;1.00;1.00;;;;;17.32;100.00;100942.31;4999096;28;45530;-75
2022/06/26 04:18:04;;;;;;;;;2.33;2.00;;;;;17.47;100.00;100967.56;4970260;28;45996;-75
2022/06/26 04:20:30;;;;;;;;;3.00;3.00;;;;;17.51;100.00;100970.66;4993679;28;45431;-76
2022/06/26 04:23:01;;;;;;;;;4.67;2.00;;;;;17.54;100.00;100979.31;4992128;28;45357;-75
2022/06/26 04:25:28;;;;;;;;;1.33;1.00;;;;;17.57;100.00;100987.13;4979166;28;45480;-76
2022/06/26 04:27:54;;;;;;;;;3.00;3.00;;;;;17.61;100.00;100976.38;4988311;28;45977;-76
2022/06/26 04:30:20;;;;;;;;;6.00;4.33;;;;;17.70;100.00;100994.28;4972225;28;46020;-75
2022/06/26 04:32:45;;;;;;;;;3.00;2.33;;;;;17.79;100.00;100989.19;4993432;28;45903;-76
2022/06/26 04:35:11;;;;;;;;;2.33;2.33;;;;;17.92;100.00;100985.25;4996189;28;45807;-76
2022/06/26 04:37:37;;;;;;;;;2.33;2.33;;;;;18.09;100.00;100988.03;4994028;28;45675;-75
2022/06/26 04:40:05;;;;;;;;;2.67;2.67;;;;;18.32;100.00;100993.41;4980952;28;46791;-76
2022/06/26 04:42:31;;;;;;;;;2.00;1.67;;;;;18.42;100.00;100987.13;4993318;28;46914;-76
2022/06/26 04:44:57;;;;;;;;;4.00;2.67;;;;;18.48;100.00;100986.13;4996488;28;45421;-74
2022/06/26 04:47:22;;;;;;;;;2.00;2.00;;;;;18.55;100.00;100985.09;4994867;28;45847;-75
2022/06/26 04:49:47;;;;;;;;;3.33;2.00;;;;;18.64;100.00;100989.94;4990202;28;46300;-76
2022/06/26 04:52:14;;;;;;;;;1.00;1.00;;;;;18.64;100.00;100976.06;4989819;28;45833;-75
2022/06/26 04:54:40;;;;;;;;;1.00;1.00;;;;;18.73;100.00;100987.56;4978297;28;45791;-74
2022/06/26 04:57:06;;;;;;;;;4.33;2.00;;;;;18.84;100.00;100994.94;4972297;28;45811;-74
2022/06/26 04:59:31;;;;;;;;;3.00;2.00;;;;;18.87;100.00;100979.72;4983717;28;45695;-73
2022/06/26 05:01:57;;;;;;;;;4.00;2.33;;;;;19.05;100.00;100990.50;4989856;28;45633;-76
2022/06/26 05:04:22;;;;;;;;;2.00;2.00;;;;;19.18;100.00;101011.50;4988767;28;46047;-75
2022/06/26 05:06:47;;;;;;;;;2.33;2.33;;;;;19.22;100.00;100984.00;4987148;28;45413;-77
2022/06/26 05:09:13;;;;;;;;;1.00;1.00;;;;;19.38;100.00;100976.69;4976385;28;47023;-77
2022/06/26 05:11:40;;;;;;;;;3.33;1.67;;;;;19.41;100.00;100962.25;4991766;28;45315;-78
2022/06/26 05:14:05;;;;;;;;;2.00;2.00;;;;;19.83;100.00;100988.53;4973639;28;45833;-77
2022/06/26 05:16:31;;;;;;;;;3.00;2.00;;;;;20.00;100.00;101007.88;4982017;28;46077;-77
2022/06/26 05:18:56;;;;;;;;;1.33;1.33;;;;;20.08;100.00;101008.22;4981497;28;45922;-78
2022/06/26 05:21:24;;;;;;;;;3.00;3.00;;;;;20.14;100.00;101017.47;4976881;28;45855;-81
2022/06/26 05:23:54;;;;;;;;;2.00;2.00;;;;;20.14;100.00;101008.28;4996136;28;45876;-79
2022/06/26 05:26:22;;;;;;;;;3.00;3.00;;;;;20.08;100.00;100996.25;4981454;28;45477;-78
2022/06/26 05:28:51;;;;;;;;;2.00;1.67;;;;;20.14;100.00;100997.97;4991577;28;46718;-78
2022/06/26 05:31:20;;;;;;;;;3.00;2.00;;;;;19.95;100.00;100972.50;4996171;28;46170;-80
2022/06/26 05:33:46;;;;;;;;;3.00;1.33;;;;;20.09;100.00;100998.78;4981297;28;45528;-78
2022/06/26 05:36:11;;;;;;;;;3.33;2.00;;;;;19.82;100.00;100954.31;4994695;28;46671;-83
2022/06/26 05:38:38;;;;;;;;;1.67;1.67;;;;;20.00;100.00;100997.59;4993032;28;47893;-79
2022/06/26 05:41:04;;;;;;;;;1.00;1.00;;;;;19.87;100.00;100982.19;4986982;28;45579;-79
2022/06/26 05:43:31;;;;;;;;;1.67;1.67;;;;;19.98;100.00;100990.63;4993687;28;46013;-78
2022/06/26 05:46:05;;;;;;;;;0.67;0.67;;;;;19.87;100.00;100979.38;4992039;28;45515;-79
2022/06/26 05:48:31;;;;;;;;;1.00;1.00;;;;;19.85;100.00;100959.34;4994685;28;46586;-79
2022/06/26 05:50:56;;;;;;;;;2.00;2.00;;;;;20.19;100.00;101003.56;4997062;28;46591;-79
2022/06/26 05:53:22;;;;;;;;;1.00;1.00;;;;;20.21;100.00;100981.03;4994777;28;45785;-81
2022/06/26 05:55:48;;;;;;;;;1.67;1.67;;;;;20.37;100.00;100984.75;4987232;28;46044;-79
2022/06/26 05:58:15;;;;;;;;;1.67;1.67;;;;;20.43;100.00;100962.25;4990301;28;46477;-78
2022/06/26 06:00:41;;;;;;;;;1.67;1.67;;;;;20.69;100.00;100989.41;4993204;28;46025;-86
2022/06/26 06:03:08;;;;;;;;;3.00;2.00;;;;;20.61;100.00;100957.31;4996955;28;45368;-86
2022/06/26 06:06:07;;;;;;;;;;;;;;;;;;;;;
2022/06/26 06:08:43;;;;;;;;;4.33;3.00;;;;;21.05;100.00;100975.63;5000071;28;45784;-87
2022/06/26 06:11:10;;;;;;;;;4.00;2.33;;;;;21.40;100.00;101007.56;4995879;28;45669;-87
2022/06/26 06:13:35;;;;;;;;;2.33;1.33;;;;;21.53;100.00;100993.09;4982315;28;45832;-85
2022/06/26 06:16:01;;;;;;;;;4.00;2.67;;;;;21.58;100.00;100955.97;4972224;28;46560;-76
2022/06/26 06:18:27;;;;;;;;;2.00;1.00;;;;;21.99;100.00;100986.69;4989719;28;46893;-77
2022/06/26 06:20:53;;;;;;;;;3.00;1.67;;;;;22.07;100.00;100979.72;4990995;28;45814;-80
2022/06/26 06:23:18;;;;;;;;;2.67;2.67;;;;;22.43;100.00;101007.66;4993464;28;45452;-79
2022/06/26 06:25:47;;;;;;;;;3.67;2.00;;;;;22.68;100.00;101015.97;4975059;28;45516;-80
2022/06/26 06:28:16;;;;;;;;;3.00;2.00;;;;;22.71;100.00;100986.56;4973597;28;46708;-77
2022/06/26 06:30:43;;;;;;;;;3.33;1.00;;;;;22.90;100.00;101000.78;4992840;28;46096;-78
2022/06/26 06:33:09;;;;;;;;;2.00;2.00;;;;;23.05;100.00;101011.91;4996456;28;45634;-80
2022/06/26 06:35:48;;;;;;;;;3.00;2.00;;;;;23.16;100.00;101004.34;4993361;28;45531;-81
2022/06/26 06:38:14;;;;;;;;;2.00;2.00;;;;;23.34;100.00;101021.59;4989883;28;46017;-79
2022/06/26 06:40:43;;;;;;;;;1.67;1.67;;;;;23.42;100.00;100982.63;4992815;28;45467;-80
2022/06/26 06:43:40;;;;;;;;;3.33;2.00;;;;;23.73;100.00;100990.81;4981003;28;45279;-88
2022/06/26 06:46:15;;;;;;;;;2.00;2.00;;;;;24.13;100.00;101019.66;5005332;28;45612;-88
2022/06/26 06:48:40;;;;;;;;;2.00;2.00;;;;;24.26;100.00;101020.09;5006742;28;46795;-80
2022/06/26 06:51:06;;;;;;;;;2.00;1.00;;;;;24.36;100.00;101006.00;4995793;28;45482;-78
2022/06/26 06:53:31;;;;;;;;;2.67;2.67;;;;;24.84;100.00;101022.06;4997749;28;45406;-80
2022/06/26 06:55:57;;;;;;;;;3.00;1.67;;;;;25.67;100.00;101022.63;4987887;28;45859;-82
2022/06/26 06:58:26;;;;;;;;;2.00;2.00;;;;;26.65;100.00;101020.13;4970267;28;46865;-82
2022/06/26 07:00:51;;;;;;;;;2.00;1.00;;;;;27.78;100.00;100998.84;4980348;28;46421;-81
2022/06/26 07:03:18;;;;;;;;;0.25;0.25;;;;;28.49;99.72;101009.44;4979605;28;45837;-82
2022/06/26 07:05:44;;;;;;;;;1.50;1.50;;;;;29.17;90.01;101025.34;5000534;28;45686;-81
2022/06/26 07:08:09;;;;;;;;;2.00;2.00;;;;;29.53;86.15;101018.59;4995508;28;45920;-80
2022/06/26 07:10:35;;;;;;;;;1.00;1.00;;;;;30.51;78.56;101007.72;4995220;28;45862;-82
2022/06/26 07:13:00;;;;;;;;;3.00;1.25;;;;;32.13;69.22;101033.22;4998011;28;45807;-80
2022/06/26 07:15:26;;;;;;;;;2.75;1.00;;;;;33.66;60.50;101024.53;4998326;28;45496;-87
2022/06/26 07:17:53;;;;;;;;;1.00;1.00;;;;;35.13;48.34;101009.81;5000728;28;45666;-88
2022/06/26 07:20:20;;;;;;;;;0.50;0.25;;;;;36.34;41.57;101053.66;4982434;28;45429;-85
2022/06/26 07:22:46;;;;;;;;;0.50;0.50;;;;;36.17;39.93;100988.41;4989211;28;45482;-78
2022/06/26 07:25:12;;;;;;;;;2.75;0.25;;;;;37.16;40.27;100986.84;4981570;28;45797;-79
2022/06/26 07:27:37;;;;;;;;;1.00;1.00;;;;;38.27;36.53;101045.63;4995733;28;46457;-80
2022/06/26 07:30:04;;;;;;;;;1.50;1.00;;;;;38.77;34.25;101059.63;5003013;28;45521;-80
2022/06/26 07:32:29;;;;;;;;;1.00;1.00;;;;;38.75;31.19;101064.13;4996757;28;45911;-79
2022/06/26 07:34:55;;;;;;;;;0.00;0.00;;;;;38.54;31.43;101064.72;4995955;28;45517;-81
2022/06/26 07:37:21;;;;;;;;;2.25;2.00;;;;;38.54;31.92;101070.47;4974548;28;48180;-79
2022/06/26 07:39:49;;;;;;;;;2.00;1.00;;;;;38.61;30.62;101053.31;4997307;28;45454;-81
2022/06/26 07:42:15;;;;;;;;;1.00;1.00;;;;;38.62;30.20;101055.78;4994199;28;45712;-79
2022/06/26 07:44:41;;;;;;;;;0.50;0.50;;;;;38.75;31.16;101075.59;4994208;28;45391;-79
2022/06/26 07:47:06;;;;;;;;;0.25;0.00;;;;;38.72;29.94;101065.75;4995874;28;45703;-80
2022/06/26 07:49:38;;;;;;;;;1.25;1.25;;;;;38.65;30.29;101059.94;4994629;28;45467;-78
2022/06/26 07:52:04;;;;;;;;;2.00;2.00;;;;;38.94;28.27;101051.56;4982038;28;45631;-81
2022/06/26 07:54:30;;;;;;;;;2.00;1.00;;;;;39.18;26.53;101076.81;4999281;28;45368;-80
2022/06/26 07:56:56;;;;;;;;;0.25;0.25;;;;;38.41;26.98;101044.94;4995713;28;45745;-80
2022/06/26 07:59:21;;;;;;;;;0.00;0.00;;;;;37.89;27.70;101067.66;4993395;28;45686;-78
2022/06/26 08:01:52;;;;;;;;;3.00;2.00;;;;;37.14;28.76;101046.50;4992874;28;45559;-79
2022/06/26 08:04:17;;;;;;;;;4.00;3.00;;;;;36.79;29.84;101061.84;4994608;28;45755;-77
2022/06/26 08:06:43;;;;;;;;;1.00;1.00;;;;;36.63;30.79;101057.03;4997578;28;46462;-77
2022/06/26 08:09:13;;;;;;;;;0.00;0.00;;;;;36.54;29.85;101067.91;4993612;28;45862;-80
2022/06/26 08:11:39;;;;;;;;;0.00;0.00;;;;;36.50;30.06;101052.72;4989391;28;45925;-75
2022/06/26 08:14:04;;;;;;;;;2.00;1.00;;;;;36.40;31.18;101055.00;4991414;28;45670;-80
2022/06/26 08:16:31;;;;;;;;;3.00;0.50;;;;;36.39;31.26;101029.66;4976759;28;47324;-77
2022/06/26 08:18:57;;;;;;;;;1.00;1.00;;;;;36.78;31.59;101049.56;4971500;28;45671;-78
2022/06/26 08:24:09;;;;;;;;;0.75;0.75;;;;;36.97;30.58;101054.41;4990434;28;45626;-81
2022/06/26 08:26:34;;;;;;;;;1.00;1.00;;;;;36.99;30.00;101040.53;4993978;28;45584;-77
2022/06/26 08:29:00;;;;;;;;;1.75;0.75;;;;;37.02;30.09;101044.66;4988895;28;45422;-78
2022/06/26 08:31:26;;;;;;;;;1.50;1.00;;;;;37.21;29.55;101050.28;4984794;28;46046;-77
2022/06/26 08:33:51;;;;;;;;;2.00;1.00;;;;;37.14;28.16;101041.59;4988840;28;45614;-78
2022/06/26 08:36:17;;;;;;;;;1.75;0.50;;;;;36.96;27.41;101044.16;4986232;28;45961;-76
2022/06/26 08:38:43;;;;;;;;;2.00;2.00;;;;;36.79;26.48;101048.38;4988557;28;45680;-77
2022/06/26 08:41:12;;;;;;;;;1.00;1.00;;;;;36.56;26.25;101052.03;4987898;28;45717;-76
2022/06/26 08:43:39;;;;;;;;;2.25;0.75;;;;;36.07;28.81;101035.56;4985599;28;46238;-79
2022/06/26 08:46:06;;;;;;;;;1.25;1.00;;;;;35.91;28.82;101052.78;4986844;28;46035;-79
2022/06/26 08:48:41;;;;;;;;;2.00;0.50;;;;;35.84;28.33;101050.59;4970285;28;45452;-76
2022/06/26 08:51:08;;;;;;;;;0.75;0.75;;;;;36.16;28.12;101050.44;4983669;28;45948;-77
2022/06/26 08:53:34;;;;;;;;;0.00;0.00;;;;;36.38;27.86;101056.56;4984504;28;45569;-74
2022/06/26 08:56:00;;;;;;;;;1.50;0.00;;;;;36.96;26.53;101041.31;4988740;28;45612;-75
2022/06/26 08:58:26;;;;;;;;;0.00;0.00;;;;;38.22;24.42;101053.72;4992430;28;46740;-75
2022/06/26 09:00:51;;;;;;;;;1.25;1.25;;;;;39.34;22.70;101032.63;4978159;28;45514;-77
2022/06/26 09:03:17;;;;;;;;;1.25;1.25;;;;;40.47;21.82;101026.13;4987578;28;45566;-77
2022/06/26 09:05:45;;;;;;;;;0.00;0.00;;;;;41.05;20.68;101024.94;4989902;28;45417;-80
2022/06/26 09:08:19;;;;;;;;;7.33;6.33;;;;;41.73;20.48;101032.56;4991583;28;45548;-77
2022/06/26 09:10:46;;;;;;;;;1.75;1.75;;;;;42.41;19.23;101022.75;4987660;28;46052;-77
2022/06/26 09:13:12;;;;;;;;;6.67;6.67;;;;;42.64;20.20;101007.78;4972362;28;47687;-76
2022/06/26 09:15:40;;;;;;;;;0.00;0.00;;;;;43.13;20.21;101024.25;4991526;28;46003;-78
2022/06/26 09:18:07;;;;;;;;;0.25;0.25;;;;;43.38;19.17;101024.78;4970974;28;46055;-75
2022/06/26 09:20:36;;;;;;;;;2.00;2.00;;;;;43.14;17.90;101000.72;4992512;28;45445;-77
2022/06/26 09:23:06;;;;;;;;;2.75;2.75;;;;;42.55;18.05;101016.09;5004369;28;45928;-80
2022/06/26 09:25:43;;;;;;;;;1.00;1.00;;;;;42.53;19.13;101006.22;4979501;28;45784;-81
2022/06/26 09:28:13;;;;;;;;;1.50;1.25;;;;;42.64;18.54;101012.72;4997425;28;45669;-79
2022/06/26 09:30:47;;;;;;;;;2.00;2.00;;;;;42.67;18.57;101011.91;4979338;28;45509;-79
2022/06/26 09:33:12;;;;;;;;;2.00;2.00;;;;;43.35;18.54;101008.34;4997932;28;45776;-79
2022/06/26 09:35:38;;;;;;;;;1.00;0.00;;;;;44.08;18.47;100993.81;4997350;28;45367;-78
2022/06/26 09:38:04;;;;;;;;;0.75;0.75;;;;;44.72;15.91;101002.75;4982602;28;45403;-79
2022/06/26 09:40:29;;;;;;;;;1.00;1.00;;;;;44.10;16.95;101008.66;4996819;28;45728;-80
2022/06/26 09:42:55;;;;;;;;;1.00;1.00;;;;;43.69;17.08;101007.53;4994107;28;45396;-74
2022/06/26 09:45:21;;;;;;;;;1.00;1.00;;;;;43.50;17.48;101014.78;4992318;28;45548;-75
2022/06/26 09:47:47;;;;;;;;;3.25;3.25;;;;;43.76;17.84;101017.34;4971006;28;45658;-79
2022/06/26 09:50:13;;;;;;;;;0.00;0.00;;;;;44.07;15.74;101010.31;4999867;28;45724;-77
2022/06/26 09:52:39;;;;;;;;;3.00;2.00;;;;;43.33;16.55;100978.28;4994225;28;45715;-79
2022/06/26 09:55:07;;;;;;;;;4.00;4.00;;;;;42.89;18.08;101006.72;4994861;28;46454;-78
2022/06/26 09:57:32;;;;;;;;;0.00;0.00;;;;;42.33;18.44;100998.13;4995558;28;46649;-78
2022/06/26 10:00:01;;;;;;;;;3.50;3.00;;;;;42.14;19.12;100994.50;4997801;28;45830;-80
2022/06/26 10:08:05;;;;;;;;;1.67;1.67;;;;;45.06;16.14;101008.34;4996762;28;45466;-83
2022/06/26 10:10:32;;;;;;;;;2.67;2.00;;;;;46.30;15.34;101005.31;4991460;28;45518;-82
2022/06/26 10:13:06;;;;;;;;;0.00;0.00;;;;;47.47;14.36;101016.38;4994882;28;45568;-83
2022/06/26 10:15:44;;;;;;;;;1.00;1.00;;;;;47.97;13.71;101008.25;5009453;28;46226;-80
2022/06/26 10:18:55;;;;;;;;;0.67;0.67;;;;;48.68;14.10;101004.28;5000773;28;45757;-79
2022/06/26 10:21:22;;;;;;;;;1.00;1.00;;;;;49.75;13.74;100992.06;4998704;28;46063;-84
2022/06/26 10:23:47;;;;;;;;;1.00;1.00;;;;;50.51;13.00;100990.59;5000604;28;45386;-81
2022/06/26 10:26:18;;;;;;;;;1.00;1.00;;;;;51.17;12.32;100995.25;5000031;28;46672;-80
2022/06/26 10:29:00;;;;;;;;;2.00;0.00;;;;;50.95;12.15;100983.75;4980050;28;45706;-80
2022/06/26 10:31:49;;;;;;;;;0.00;0.00;;;;;50.50;11.53;100971.50;4999580;28;45778;-81
2022/06/26 10:34:16;;;;;;;;;0.33;0.33;;;;;50.52;11.20;100992.25;4979269;28;46659;-81
2022/06/26 10:36:42;;;;;;;;;2.00;1.00;;;;;50.78;12.18;100982.41;4997062;28;45741;-81
2022/06/26 10:39:07;;;;;;;;;1.00;1.00;;;;;50.15;11.37;100985.47;4996545;28;45327;-82
2022/06/26 10:44:52;;;;;;;;;0.00;0.00;;;;;49.22;11.35;100984.91;4993503;28;45811;-77
2022/06/26 10:47:17;;;;;;;;;0.00;0.00;;;;;48.59;11.83;100995.44;4983098;28;45717;-76
2022/06/26 10:49:51;;;;;;;;;3.00;1.00;;;;;48.13;12.38;100984.06;4992694;28;45788;-81
2022/06/26 10:52:27;;;;;;;;;2.00;1.00;;;;;47.87;12.27;100998.56;4993802;28;45399;-81
2022/06/26 10:54:54;;;;;;;;;2.00;1.00;;;;;47.42;12.54;100998.69;4992157;28;45622;-77
2022/06/26 10:57:33;;;;;;;;;39.67;34.00;;;;;47.23;13.21;100998.38;4994490;28;45852;-79
2022/06/26 11:00:00;;;;;;;;;3.00;1.00;;;;;46.71;12.36;100982.75;4976969;28;45382;-80
2022/06/26 11:02:34;;;;;;;;;0.00;0.00;;;;;45.82;12.73;100974.97;4994077;28;45380;-77
2022/06/26 11:04:59;;;;;;;;;2.33;1.00;;;;;45.47;13.43;100986.06;4993869;28;45433;-80
2022/06/26 11:07:25;;;;;;;;;1.00;1.00;;;;;45.05;13.49;100977.78;4993387;28;45783;-79
2022/06/26 11:09:55;;;;;;;;;1.00;1.00;;;;;43.79;14.41;100973.16;4977581;28;45416;-78
2022/06/26 11:12:21;;;;;;;;;0.25;0.25;;;;;43.03;14.71;100972.00;4974380;28;44831;-79
2022/06/26 11:14:46;;;;;;;;;1.00;1.00;;;;;42.33;15.35;100970.09;4980633;28;45816;-78
2022/06/26 11:17:12;;;;;;;;;2.00;2.00;;;;;41.54;15.87;100956.13;4998450;28;46041;-77
2022/06/26 11:22:22;;;;;;;;;1.00;1.00;;;;;40.22;17.30;100967.38;5001114;28;45534;-79
2022/06/26 11:24:50;;;;;;;;;0.75;0.75;;;;;39.63;17.40;100938.06;5001360;28;45383;-78
2022/06/26 11:27:15;;;;;;;;;2.25;1.50;;;;;39.31;18.29;100967.44;4997831;28;45610;-78
2022/06/26 11:29:41;;;;;;;;;0.50;0.50;;;;;38.99;17.89;100970.91;4977993;28;45830;-78
2022/06/26 11:32:07;;;;;;;;;0.00;0.00;;;;;38.37;17.88;100963.88;4989662;28;45491;-78
2022/06/26 11:34:33;;;;;;;;;1.00;0.75;;;;;37.39;18.54;100938.19;4977202;28;46029;-79
2022/06/26 11:37:01;;;;;;;;;2.00;0.50;;;;;36.86;18.89;100956.19;5001949;28;45465;-79
2022/06/26 11:39:40;;;;;;;;;0.00;0.00;;;;;35.96;19.61;100961.13;5002738;28;45869;-77